createdAt,value
2022-09-09T00:01:25.333Z,1.70
2022-09-09T00:03:57.447Z,1.93
2022-09-09T00:06:36.491Z,2.40
2022-09-09T00:09:12.068Z,1.70
2022-09-09T00:11:43.834Z,1.97
2022-09-09T00:14:29.508Z,1.80
2022-09-09T00:16:58.776Z,2.30
2022-09-09T00:19:34.502Z,2.15
2022-09-09T00:22:06.934Z,1.90
2022-09-09T00:24:39.853Z,1.87
2022-09-09T00:27:09.774Z,2.00
2022-09-09T00:29:42.261Z,1.83
2022-09-09T00:32:17.037Z,1.90
2022-09-09T00:34:52.191Z,1.80
2022-09-09T00:37:19.466Z,1.70
2022-09-09T00:39:48.813Z,2.00
2022-09-09T00:42:25.328Z,1.83
2022-09-09T00:45:10.453Z,1.67
2022-09-09T00:47:41.363Z,1.83
2022-09-09T00:50:07.779Z,1.80
2022-09-09T00:52:53.164Z,2.10
2022-09-09T00:55:30.063Z,1.97
2022-09-09T00:57:57.119Z,2.00
2022-09-09T01:00:28.184Z,1.63
2022-09-09T01:03:10.287Z,1.80
2022-09-09T01:05:47.203Z,2.00
2022-09-09T01:08:34.408Z,2.10
2022-09-09T01:11:01.112Z,2.13
2022-09-09T01:13:32.623Z,1.93
2022-09-09T01:16:03.651Z,1.80
2022-09-09T01:18:32.084Z,1.93
2022-09-09T01:21:05.191Z,1.90
2022-09-09T01:23:35.326Z,2.13
2022-09-09T01:26:04.574Z,2.07
2022-09-09T01:28:32.237Z,2.13
2022-09-09T01:30:59.801Z,1.97
2022-09-09T01:33:26.292Z,2.33
2022-09-09T01:35:55.605Z,2.40
2022-09-09T01:38:22.612Z,2.10
2022-09-09T01:40:50.076Z,2.27
2022-09-09T01:43:16.546Z,2.30
2022-09-09T01:45:43.745Z,2.40
2022-09-09T01:48:10.298Z,2.57
2022-09-09T01:50:36.745Z,2.87
2022-09-09T01:53:03.723Z,2.53
2022-09-09T01:55:36.579Z,2.23
2022-09-09T01:58:05.862Z,2.13
2022-09-09T02:00:34.253Z,2.67
2022-09-09T02:03:09.775Z,2.50
2022-09-09T02:05:39.059Z,2.40
2022-09-09T02:08:08.475Z,2.00
2022-09-09T02:10:47.555Z,2.23
2022-09-09T02:13:15.482Z,2.10
2022-09-09T02:15:44.963Z,2.70
2022-09-09T02:18:13.426Z,2.33
2022-09-09T02:20:40.117Z,2.33
2022-09-09T02:23:08.752Z,2.60
2022-09-09T02:25:36.706Z,2.33
2022-09-09T02:28:05.503Z,2.80
2022-09-09T02:30:32.622Z,2.47
2022-09-09T02:33:00.477Z,2.77
2022-09-09T02:35:27.743Z,2.37
2022-09-09T02:37:56.325Z,2.40
2022-09-09T02:40:23.150Z,2.70
2022-09-09T02:42:50.313Z,2.57
2022-09-09T02:45:19.197Z,2.77
2022-09-09T02:47:56.110Z,1.80
2022-09-09T02:50:35.439Z,2.33
2022-09-09T02:53:08.716Z,2.33
2022-09-09T02:55:55.915Z,2.10
2022-09-09T02:58:22.864Z,2.20
2022-09-09T03:00:50.225Z,2.20
2022-09-09T03:03:17.398Z,2.20
2022-09-09T03:05:44.669Z,3.60
2022-09-09T03:08:11.289Z,3.10
2022-09-09T03:10:38.104Z,2.50
2022-09-09T03:13:07.540Z,2.40
2022-09-09T03:15:33.989Z,2.50
2022-09-09T03:18:00.940Z,2.30
2022-09-09T03:20:28.394Z,2.70
2022-09-09T03:22:55.262Z,2.70
2022-09-09T03:25:24.156Z,2.70
2022-09-09T03:27:50.920Z,4.10
2022-09-09T03:30:17.382Z,2.97
2022-09-09T03:32:48.321Z,3.60
2022-09-09T03:35:16.379Z,2.83
2022-09-09T03:37:42.874Z,4.00
2022-09-09T03:40:10.932Z,4.50
2022-09-09T03:42:38.165Z,3.03
2022-09-09T03:45:06.021Z,4.17
2022-09-09T03:47:32.505Z,3.17
2022-09-09T03:49:58.952Z,3.43
2022-09-09T03:52:27.353Z,3.17
2022-09-09T03:54:54.365Z,2.97
2022-09-09T03:57:21.071Z,3.07
2022-09-09T03:59:47.470Z,3.03
2022-09-09T04:02:13.970Z,3.90
2022-09-09T04:04:40.710Z,3.60
2022-09-09T04:07:10.230Z,2.97
2022-09-09T04:09:36.675Z,3.67
2022-09-09T04:12:03.304Z,2.83
2022-09-09T04:14:29.777Z,2.40
2022-09-09T04:16:59.274Z,2.90
2022-09-09T04:19:25.941Z,3.00
2022-09-09T04:21:52.653Z,2.87
2022-09-09T04:24:19.929Z,3.17
2022-09-09T04:26:46.616Z,2.83
2022-09-09T04:29:13.182Z,2.97
2022-09-09T04:31:43.143Z,3.47
2022-09-09T04:34:10.209Z,3.20
2022-09-09T04:36:37.307Z,3.30
2022-09-09T04:39:03.841Z,2.43
2022-09-09T04:41:30.965Z,3.03
2022-09-09T04:43:57.389Z,3.10
2022-09-09T04:46:24.645Z,4.50
2022-09-09T04:48:51.179Z,3.00
2022-09-09T04:51:17.615Z,2.97
2022-09-09T04:53:44.164Z,3.43
2022-09-09T04:56:15.082Z,4.00
2022-09-09T04:58:45.028Z,2.97
2022-09-09T05:01:13.269Z,2.70
2022-09-09T05:03:39.800Z,3.30
2022-09-09T05:06:10.704Z,3.17
2022-09-09T05:08:40.437Z,4.00
2022-09-09T05:11:19.389Z,3.17
2022-09-09T05:13:46.246Z,3.50
2022-09-09T05:16:13.055Z,3.03
2022-09-09T05:18:40.300Z,3.00
2022-09-09T05:21:07.395Z,3.57
2022-09-09T05:23:34.906Z,3.03
2022-09-09T05:26:01.539Z,3.20
2022-09-09T05:28:28.376Z,4.10
2022-09-09T05:31:04.946Z,4.37
2022-09-09T05:33:32.099Z,3.93
2022-09-09T05:35:59.143Z,3.47
2022-09-09T05:38:28.779Z,3.33
2022-09-09T05:40:56.257Z,2.50
2022-09-09T05:43:22.748Z,3.20
2022-09-09T05:45:49.528Z,2.72
2022-09-09T05:48:17.084Z,2.90
2022-09-09T05:50:44.045Z,2.58
2022-09-09T05:53:11.450Z,2.15
2022-09-09T05:55:37.924Z,2.72
2022-09-09T05:58:05.236Z,2.20
2022-09-09T06:00:33.109Z,1.98
2022-09-09T06:02:59.757Z,2.40
2022-09-09T06:05:28.331Z,2.38
2022-09-09T06:07:55.040Z,2.10
2022-09-09T06:10:21.672Z,2.10
2022-09-09T06:12:48.176Z,1.90
2022-09-09T06:15:14.681Z,2.38
2022-09-09T06:17:42.754Z,2.13
2022-09-09T06:20:10.307Z,1.77
2022-09-09T06:22:36.735Z,2.00
2022-09-09T06:25:03.191Z,2.20
2022-09-09T06:27:29.907Z,2.08
2022-09-09T06:29:56.335Z,2.30
2022-09-09T06:32:22.761Z,2.33
2022-09-09T06:34:50.287Z,2.30
2022-09-09T06:37:16.781Z,1.95
2022-09-09T06:39:43.314Z,2.35
2022-09-09T06:42:10.262Z,1.98
2022-09-09T06:44:37.565Z,2.35
2022-09-09T06:47:04.502Z,1.92
2022-09-09T06:49:31.020Z,1.95
2022-09-09T06:51:57.424Z,2.20
2022-09-09T06:54:24.789Z,2.17
2022-09-09T06:56:51.343Z,1.90
2022-09-09T06:59:17.836Z,2.13
2022-09-09T07:01:56.025Z,1.73
2022-09-09T07:04:22.923Z,1.92
2022-09-09T07:06:49.395Z,1.70
2022-09-09T07:09:16.897Z,2.00
2022-09-09T07:11:44.511Z,2.05
2022-09-09T07:14:15.085Z,2.00
2022-09-09T07:16:42.925Z,1.73
2022-09-09T07:19:09.586Z,2.00
2022-09-09T07:21:36.097Z,1.70
2022-09-09T07:24:03.286Z,1.70
2022-09-09T07:26:31.514Z,1.60
2022-09-09T07:28:58.221Z,1.98
2022-09-09T07:31:31.026Z,1.70
2022-09-09T07:33:57.583Z,2.10
2022-09-09T07:36:32.635Z,1.95
2022-09-09T07:39:01.320Z,1.90
2022-09-09T07:41:29.283Z,1.95
2022-09-09T07:43:55.938Z,1.67
2022-09-09T07:46:23.431Z,2.03
2022-09-09T07:48:54.304Z,1.60
2022-09-09T07:51:23.355Z,2.00
2022-09-09T07:53:52.436Z,1.60
2022-09-09T07:56:19.910Z,2.20
2022-09-09T07:58:47.793Z,1.65
2022-09-09T08:01:17.009Z,2.13
2022-09-09T08:03:44.087Z,1.85
2022-09-09T08:06:10.644Z,1.80
2022-09-09T08:08:37.308Z,1.85
2022-09-09T08:11:04.770Z,1.83
2022-09-09T08:13:32.553Z,1.73
2022-09-09T08:16:06.356Z,2.13
2022-09-09T08:18:34.148Z,2.03
2022-09-09T08:21:06.476Z,1.70
2022-09-09T08:23:32.953Z,2.22
2022-09-09T08:26:25.927Z,1.75
2022-09-09T08:28:53.198Z,2.17
2022-09-09T08:31:30.172Z,2.15
2022-09-09T08:33:57.353Z,1.70
2022-09-09T08:36:30.475Z,1.80
2022-09-09T08:38:58.055Z,2.03
2022-09-09T08:41:30.610Z,2.10
2022-09-09T08:44:20.329Z,1.90
2022-09-09T08:46:59.044Z,2.45
2022-09-09T08:49:44.408Z,1.90
2022-09-09T08:52:17.007Z,1.90
2022-09-09T08:54:52.217Z,2.08
2022-09-09T08:57:29.661Z,2.03
2022-09-09T08:59:57.684Z,2.13
2022-09-09T09:02:39.270Z,2.08
2022-09-09T09:05:17.889Z,2.00
2022-09-09T09:07:50.135Z,2.08
2022-09-09T09:10:40.001Z,1.90
2022-09-09T09:13:04.130Z,1.50
2022-09-09T09:15:40.616Z,2.10
2022-09-09T09:18:08.759Z,1.60
2022-09-09T09:20:43.699Z,1.65
2022-09-09T09:23:16.596Z,1.90
2022-09-09T09:25:43.791Z,1.75
2022-09-09T09:28:18.545Z,1.83
2022-09-09T09:30:53.533Z,1.73
2022-09-09T09:33:29.540Z,1.80
2022-09-09T09:35:56.048Z,2.15
2022-09-09T09:41:10.572Z,2.10
2022-09-09T09:43:38.632Z,2.10
2022-09-09T09:46:17.537Z,2.20
2022-09-09T09:48:44.603Z,1.90
2022-09-09T09:51:13.502Z,1.80
2022-09-09T09:53:40.314Z,2.08
2022-09-09T09:56:12.446Z,1.77
2022-09-09T09:58:39.655Z,1.80
2022-09-09T10:01:06.287Z,1.88
2022-09-09T10:03:38.554Z,2.00
2022-09-09T10:06:05.118Z,2.25
2022-09-09T10:08:34.486Z,2.50
2022-09-09T10:11:00.969Z,1.55
2022-09-09T10:13:27.373Z,2.05
2022-09-09T10:16:04.607Z,2.17
2022-09-09T10:18:43.174Z,2.08
2022-09-09T10:21:12.355Z,1.60
2022-09-09T10:23:57.201Z,1.83
2022-09-09T10:26:42.018Z,2.05
2022-09-09T10:29:23.628Z,2.25
2022-09-09T10:32:08.751Z,1.80
2022-09-09T10:34:56.681Z,1.70
2022-09-09T10:37:31.238Z,2.00
2022-09-09T10:40:04.081Z,2.28
2022-09-09T10:42:32.568Z,2.03
2022-09-09T10:45:17.741Z,1.73
2022-09-09T10:47:49.649Z,2.00
2022-09-09T10:50:16.133Z,1.63
2022-09-09T10:53:00.701Z,1.80
2022-09-09T10:55:37.080Z,1.85
2022-09-09T10:58:05.145Z,2.33
2022-09-09T11:00:46.907Z,2.10
2022-09-09T11:03:19.769Z,1.80
2022-09-09T11:06:06.558Z,2.03
2022-09-09T11:08:35.513Z,2.20
2022-09-09T11:11:08.346Z,1.85
2022-09-09T11:13:34.758Z,2.35
2022-09-09T11:16:13.528Z,2.15
2022-09-09T11:18:41.075Z,2.15
2022-09-09T11:21:10.253Z,2.22
2022-09-09T11:23:55.595Z,1.80
2022-09-09T11:26:30.168Z,1.80
2022-09-09T11:29:24.183Z,1.92
2022-09-09T11:32:05.768Z,1.58
2022-09-09T11:34:41.587Z,1.80
2022-09-09T11:37:31.400Z,1.95
2022-09-09T11:40:08.961Z,1.65
2022-09-09T11:42:35.534Z,2.00
2022-09-09T11:45:21.277Z,1.55
2022-09-09T11:47:55.182Z,2.00
2022-09-09T11:50:21.579Z,1.95
2022-09-09T11:52:51.136Z,1.98
2022-09-09T11:55:34.188Z,1.92
2022-09-09T11:58:01.498Z,2.00
2022-09-09T12:00:34.108Z,2.20
2022-09-09T12:03:00.557Z,1.98
2022-09-09T12:05:37.433Z,2.35
2022-09-09T12:08:04.618Z,1.88
2022-09-09T12:10:33.826Z,2.33
2022-09-09T12:13:16.208Z,2.08
2022-09-09T12:15:53.737Z,1.98
2022-09-09T12:18:27.407Z,1.88
2022-09-09T12:20:58.185Z,1.80
2022-09-09T12:23:31.107Z,1.88
2022-09-09T12:26:00.326Z,2.05
2022-09-09T12:28:32.795Z,2.20
2022-09-09T12:31:02.357Z,2.10
2022-09-09T12:33:35.546Z,1.95
2022-09-09T12:36:03.017Z,2.15
2022-09-09T12:38:33.777Z,2.22
2022-09-09T12:41:01.517Z,2.15
2022-09-09T12:43:28.721Z,2.05
2022-09-09T12:45:58.939Z,1.98
2022-09-09T12:48:32.629Z,2.35
2022-09-09T12:51:00.481Z,2.33
2022-09-09T12:53:30.059Z,1.95
2022-09-09T12:56:01.310Z,2.13
2022-09-09T12:58:29.450Z,1.98
2022-09-09T13:00:59.639Z,2.10
2022-09-09T13:03:26.811Z,2.13
2022-09-09T13:05:54.319Z,2.10
2022-09-09T13:08:21.570Z,2.20
2022-09-09T13:11:03.122Z,2.10
2022-09-09T13:13:31.992Z,2.30
2022-09-09T13:15:59.913Z,2.20
2022-09-09T13:18:36.893Z,1.92
2022-09-09T13:21:04.143Z,2.53
2022-09-09T13:23:32.077Z,1.92
2022-09-09T13:26:03.234Z,1.83
2022-09-09T13:28:33.499Z,2.13
2022-09-09T13:31:05.930Z,2.20
2022-09-09T13:33:38.259Z,2.10
2022-09-09T13:36:05.428Z,3.08
2022-09-09T13:38:39.579Z,2.60
2022-09-09T13:41:08.104Z,2.33
2022-09-09T13:43:39.312Z,2.10
2022-09-09T13:46:22.635Z,2.17
2022-09-09T13:48:59.286Z,2.20
2022-09-09T13:51:35.274Z,2.33
2022-09-09T13:54:02.171Z,2.20
2022-09-09T13:56:28.677Z,2.10
2022-09-09T13:58:55.257Z,2.25
2022-09-09T14:01:22.899Z,1.98
2022-09-09T14:03:52.102Z,2.45
2022-09-09T14:06:19.934Z,2.42
2022-09-09T14:08:46.784Z,2.70
2022-09-09T14:11:14.001Z,3.05
2022-09-09T14:13:40.450Z,2.70
2022-09-09T14:16:09.188Z,2.60
2022-09-09T14:18:35.631Z,2.33
2022-09-09T14:21:03.832Z,2.38
2022-09-09T14:23:30.575Z,2.22
2022-09-09T14:25:57.013Z,2.05
2022-09-09T14:28:45.160Z,1.73
2022-09-09T14:31:11.411Z,2.40
2022-09-09T14:33:37.889Z,2.47
2022-09-09T14:36:04.610Z,2.53
2022-09-09T14:38:31.969Z,2.25
2022-09-09T14:40:59.523Z,2.88
2022-09-09T14:43:27.124Z,2.03
2022-09-09T14:45:53.734Z,2.33
2022-09-09T14:48:20.235Z,2.35
2022-09-09T14:50:46.714Z,2.05
2022-09-09T14:53:13.262Z,2.30
2022-09-09T14:55:39.958Z,2.35
2022-09-09T14:58:07.249Z,2.63
2022-09-09T15:00:33.711Z,2.50
2022-09-09T15:03:00.240Z,2.30
2022-09-09T15:05:26.737Z,2.33
2022-09-09T15:08:02.048Z,2.45
2022-09-09T15:10:28.490Z,2.50
2022-09-09T15:12:54.923Z,3.17
2022-09-09T15:15:22.133Z,2.92
2022-09-09T15:17:48.625Z,2.92
2022-09-09T15:20:16.248Z,3.33
2022-09-09T15:22:42.695Z,3.08
2022-09-09T15:25:09.263Z,3.33
2022-09-09T15:27:35.847Z,3.03
2022-09-09T15:30:02.307Z,3.10
2022-09-09T15:32:28.764Z,3.33
2022-09-09T15:34:55.230Z,3.33
2022-09-09T15:37:21.718Z,3.38
2022-09-09T15:39:49.639Z,3.55
2022-09-09T15:42:16.197Z,2.80
2022-09-09T15:44:43.315Z,3.50
2022-09-09T15:47:11.772Z,3.05
2022-09-09T15:49:38.231Z,3.35
2022-09-09T15:52:04.713Z,3.00
2022-09-09T15:54:39.592Z,3.28
2022-09-09T15:57:06.701Z,2.95
2022-09-09T15:59:34.407Z,4.32
2022-09-09T16:02:01.256Z,3.95
2022-09-09T16:04:30.131Z,3.22
2022-09-09T16:07:01.281Z,2.85
2022-09-09T16:09:28.486Z,3.70
2022-09-09T16:11:57.451Z,3.67
2022-09-09T16:14:23.930Z,3.28
2022-09-09T16:16:50.436Z,3.00
2022-09-09T16:19:16.949Z,3.45
2022-09-09T16:21:44.734Z,3.72
2022-09-09T16:24:12.681Z,3.45
2022-09-09T16:26:40.532Z,3.40
2022-09-09T16:29:07.144Z,2.70
2022-09-09T16:31:33.795Z,3.58
2022-09-09T16:34:00.471Z,3.22
2022-09-09T16:36:28.744Z,3.28
2022-09-09T16:38:58.653Z,3.75
2022-09-09T16:41:25.705Z,3.22
2022-09-09T16:43:55.406Z,3.35
2022-09-09T16:46:22.615Z,3.42
2022-09-09T16:48:50.233Z,3.70
2022-09-09T16:51:20.966Z,4.57
2022-09-09T16:53:47.544Z,3.92
2022-09-09T16:56:15.181Z,4.13
2022-09-09T16:58:43.952Z,3.63
2022-09-09T17:01:12.583Z,4.03
2022-09-09T17:03:39.070Z,3.78
2022-09-09T17:06:09.523Z,4.65
2022-09-09T17:08:35.934Z,3.53
2022-09-09T17:11:02.405Z,4.03
2022-09-09T17:13:28.872Z,4.18
2022-09-09T17:15:58.561Z,3.97
2022-09-09T17:18:29.293Z,3.60
2022-09-09T17:20:55.728Z,4.40
2022-09-09T17:23:22.678Z,3.60
2022-09-09T17:25:57.710Z,4.03
2022-09-09T17:28:28.310Z,3.95
2022-09-09T17:30:54.882Z,3.88
2022-09-09T17:33:21.822Z,4.10
2022-09-09T17:35:50.077Z,4.15
2022-09-09T17:38:16.893Z,3.50
2022-09-09T17:40:43.775Z,4.50
2022-09-09T17:43:10.231Z,3.63
2022-09-09T17:45:36.703Z,3.92
2022-09-09T17:48:03.875Z,4.60
2022-09-09T17:50:30.426Z,3.38
2022-09-09T17:52:57.176Z,4.10
2022-09-09T17:55:23.629Z,3.85
2022-09-09T17:57:50.068Z,4.05
2022-09-09T18:00:16.609Z,4.20
2022-09-09T18:02:44.067Z,3.97
2022-09-09T18:05:11.181Z,4.47
2022-09-09T18:07:37.611Z,4.65
2022-09-09T18:10:04.186Z,4.28
2022-09-09T18:12:31.043Z,4.15
2022-09-09T18:15:00.995Z,4.63
2022-09-09T18:17:30.684Z,4.75
2022-09-09T18:19:57.123Z,4.07
2022-09-09T18:22:23.554Z,4.43
2022-09-09T18:24:50.382Z,4.38
2022-09-09T18:27:16.907Z,4.78
2022-09-09T18:29:43.403Z,3.92
2022-09-09T18:32:09.842Z,4.53
2022-09-09T18:34:36.429Z,5.57
2022-09-09T18:37:02.868Z,4.50
2022-09-09T18:39:29.752Z,4.85
2022-09-09T18:41:59.478Z,4.30
2022-09-09T18:44:26.923Z,4.53
2022-09-09T18:46:54.061Z,4.07
2022-09-09T18:49:21.881Z,4.68
2022-09-09T18:51:48.716Z,4.68
2022-09-09T18:54:19.819Z,4.13
2022-09-09T18:56:46.664Z,5.03
2022-09-09T18:59:14.680Z,4.90
2022-09-09T19:01:41.427Z,4.70
2022-09-09T19:04:08.614Z,4.65
2022-09-09T19:06:37.246Z,4.25
2022-09-09T19:09:04.341Z,4.00
2022-09-09T19:11:31.559Z,4.65
2022-09-09T19:13:59.893Z,4.38
2022-09-09T19:16:29.152Z,4.75
2022-09-09T19:18:57.788Z,4.47
2022-09-09T19:21:31.731Z,4.68
2022-09-09T19:24:00.131Z,3.97
2022-09-09T19:26:32.134Z,4.13
2022-09-09T19:29:02.752Z,3.80
2022-09-09T19:31:30.366Z,4.25
2022-09-09T19:33:57.420Z,4.28
2022-09-09T19:36:24.836Z,4.15
2022-09-09T19:38:52.821Z,3.60
2022-09-09T19:41:21.428Z,4.57
2022-09-09T19:43:47.984Z,4.07
2022-09-09T19:46:18.995Z,4.00
2022-09-09T19:48:46.079Z,4.32
2022-09-09T19:51:14.001Z,3.92
2022-09-09T19:53:41.695Z,3.30
2022-09-09T19:56:09.454Z,3.75
2022-09-09T19:58:37.572Z,3.90
2022-09-09T20:01:12.322Z,3.70
2022-09-09T20:03:40.048Z,3.93
2022-09-09T20:06:07.289Z,3.67
2022-09-09T20:08:33.880Z,3.90
2022-09-09T20:11:03.251Z,3.90
2022-09-09T20:13:30.384Z,3.65
2022-09-09T20:16:00.842Z,3.35
2022-09-09T20:18:28.583Z,4.07
2022-09-09T20:21:01.792Z,3.78
2022-09-09T20:23:29.200Z,5.00
2022-09-09T20:25:56.509Z,3.93
2022-09-09T20:28:22.976Z,3.60
2022-09-09T20:30:51.415Z,3.67
2022-09-09T20:33:18.473Z,3.87
2022-09-09T20:35:45.251Z,3.60
2022-09-09T20:38:11.700Z,3.70
2022-09-09T20:40:38.781Z,3.57
2022-09-09T20:43:05.521Z,4.97
2022-09-09T20:45:35.682Z,3.80
2022-09-09T20:48:02.536Z,4.03
2022-09-09T20:50:28.953Z,3.53
2022-09-09T20:52:55.366Z,3.87
2022-09-09T20:55:21.805Z,3.50
2022-09-09T20:57:48.220Z,4.40
2022-09-09T21:00:15.161Z,3.93
2022-09-09T21:02:41.749Z,4.23
2022-09-09T21:05:08.542Z,3.70
2022-09-09T21:07:34.958Z,3.57
2022-09-09T21:10:02.165Z,4.40
2022-09-09T21:12:28.622Z,4.30
2022-09-09T21:14:55.057Z,3.87
2022-09-09T21:17:21.868Z,3.90
2022-09-09T21:19:48.319Z,3.33
2022-09-09T21:22:14.803Z,3.63
2022-09-09T21:24:41.278Z,3.70
2022-09-09T21:27:07.779Z,2.93
2022-09-09T21:29:34.219Z,2.73
2022-09-09T21:32:03.663Z,2.90
2022-09-09T21:34:30.221Z,2.60
2022-09-09T21:36:57.082Z,2.93
2022-09-09T21:39:23.575Z,2.90
2022-09-09T21:41:50.138Z,2.63
2022-09-09T21:44:16.589Z,2.90
2022-09-09T21:46:43.968Z,2.63
2022-09-09T21:49:11.203Z,2.50
2022-09-09T21:51:37.664Z,2.27
2022-09-09T21:54:04.184Z,2.20
2022-09-09T21:56:30.631Z,2.57
2022-09-09T21:58:58.035Z,2.77
2022-09-09T22:01:24.949Z,2.70
2022-09-09T22:03:51.907Z,2.60
2022-09-09T22:06:18.857Z,2.47
2022-09-09T22:08:46.042Z,2.87
2022-09-09T22:11:16.647Z,2.63
2022-09-09T22:13:44.775Z,3.23
2022-09-09T22:16:12.422Z,3.10
2022-09-09T22:18:39.287Z,2.73
2022-09-09T22:21:24.428Z,2.73
2022-09-09T22:23:53.120Z,3.03
2022-09-09T22:26:19.804Z,3.20
2022-09-09T22:28:47.116Z,2.83
2022-09-09T22:31:13.964Z,3.37
2022-09-09T22:33:40.435Z,2.90
2022-09-09T22:36:07.167Z,2.50
2022-09-09T22:38:35.294Z,2.53
2022-09-09T22:41:02.995Z,2.43
2022-09-09T22:43:30.078Z,2.40
2022-09-09T22:45:56.544Z,2.33
2022-09-09T22:48:24.247Z,2.30
2022-09-09T22:50:50.798Z,2.97
2022-09-09T22:53:18.130Z,3.10
2022-09-09T22:55:54.749Z,2.53
2022-09-09T22:58:22.216Z,3.10
2022-09-09T23:00:48.639Z,3.20
2022-09-09T23:03:15.114Z,2.73
2022-09-09T23:05:41.580Z,3.13
2022-09-09T23:08:08.008Z,3.53
2022-09-09T23:10:34.535Z,3.20
2022-09-09T23:13:00.963Z,3.43
2022-09-09T23:15:28.374Z,3.20
2022-09-09T23:17:55.072Z,2.83
2022-09-09T23:20:22.227Z,2.97
2022-09-09T23:22:48.658Z,3.00
2022-09-09T23:25:15.134Z,3.10
2022-09-09T23:27:41.647Z,3.10
2022-09-09T23:30:09.950Z,2.97
2022-09-09T23:32:37.194Z,2.67
2022-09-09T23:35:05.097Z,2.60
2022-09-09T23:37:31.909Z,3.10
2022-09-09T23:39:58.362Z,3.13
2022-09-09T23:42:25.904Z,3.13
2022-09-09T23:44:52.326Z,2.53
2022-09-09T23:47:18.764Z,2.80
2022-09-09T23:49:46.174Z,3.10
2022-09-09T23:52:12.642Z,2.70
2022-09-09T23:54:39.054Z,3.13
2022-09-09T23:57:05.625Z,2.83
2022-09-09T23:59:32.105Z,3.17
